sensor_id;sensor_type;location;lat;lon;timestamp;P1;durP1;ratioP1;P2;durP2;ratioP2
24635;SDS011;12772;49.794;10.024;2024-03-25T00:00:14;4.38;;;3.25;;
24635;SDS011;12772;49.794;10.024;2024-03-25T00:04:16;5.38;;;3.22;;
24635;SDS011;12772;49.794;10.024;2024-03-25T00:08:18;3.42;;;3.10;;
24635;SDS011;12772;49.794;10.024;2024-03-25T00:12:20;4.15;;;2.75;;
24635;SDS011;12772;49.794;10.024;2024-03-25T00:16:22;3.60;;;2.70;;
24635;SDS011;12772;49.794;10.024;2024-03-25T00:20:24;4.50;;;2.92;;
24635;SDS011;12772;49.794;10.024;2024-03-25T00:24:26;3.13;;;2.83;;
24635;SDS011;12772;49.794;10.024;2024-03-25T00:28:28;3.67;;;2.88;;
24635;SDS011;12772;49.794;10.024;2024-03-25T00:32:30;4.53;;;2.92;;
24635;SDS011;12772;49.794;10.024;2024-03-25T00:36:32;4.57;;;2.78;;
24635;SDS011;12772;49.794;10.024;2024-03-25T00:40:34;3.88;;;3.20;;
24635;SDS011;12772;49.794;10.024;2024-03-25T00:44:37;3.22;;;2.83;;
24635;SDS011;12772;49.794;10.024;2024-03-25T00:48:39;3.05;;;2.40;;
24635;SDS011;12772;49.794;10.024;2024-03-25T00:52:43;4.82;;;2.38;;
24635;SDS011;12772;49.794;10.024;2024-03-25T00:56:45;3.50;;;2.40;;
24635;SDS011;12772;49.794;10.024;2024-03-25T01:00:47;3.97;;;2.28;;
24635;SDS011;12772;49.794;10.024;2024-03-25T01:04:49;2.95;;;2.05;;
24635;SDS011;12772;49.794;10.024;2024-03-25T01:08:51;2.65;;;2.20;;
24635;SDS011;12772;49.794;10.024;2024-03-25T01:12:53;2.63;;;2.00;;
24635;SDS011;12772;49.794;10.024;2024-03-25T01:16:55;5.30;;;2.40;;
24635;SDS011;12772;49.794;10.024;2024-03-25T01:20:58;2.95;;;2.03;;
24635;SDS011;12772;49.794;10.024;2024-03-25T01:24:59;4.25;;;2.70;;
24635;SDS011;12772;49.794;10.024;2024-03-25T01:29:02;5.25;;;3.33;;
24635;SDS011;12772;49.794;10.024;2024-03-25T01:33:03;3.17;;;2.42;;
24635;SDS011;12772;49.794;10.024;2024-03-25T01:37:05;4.30;;;2.60;;
24635;SDS011;12772;49.794;10.024;2024-03-25T01:41:11;2.88;;;2.60;;
24635;SDS011;12772;49.794;10.024;2024-03-25T01:45:15;2.90;;;2.38;;
24635;SDS011;12772;49.794;10.024;2024-03-25T01:49:17;4.32;;;3.03;;
24635;SDS011;12772;49.794;10.024;2024-03-25T01:53:21;3.90;;;3.10;;
24635;SDS011;12772;49.794;10.024;2024-03-25T01:57:24;5.82;;;3.00;;
24635;SDS011;12772;49.794;10.024;2024-03-25T02:01:27;5.35;;;3.45;;
24635;SDS011;12772;49.794;10.024;2024-03-25T02:05:30;3.05;;;2.80;;
24635;SDS011;12772;49.794;10.024;2024-03-25T02:09:32;5.13;;;2.92;;
24635;SDS011;12772;49.794;10.024;2024-03-25T02:13:35;3.75;;;2.33;;
24635;SDS011;12772;49.794;10.024;2024-03-25T02:17:37;3.35;;;2.55;;
24635;SDS011;12772;49.794;10.024;2024-03-25T02:21:39;3.92;;;2.75;;
24635;SDS011;12772;49.794;10.024;2024-03-25T02:25:41;3.50;;;2.20;;
24635;SDS011;12772;49.794;10.024;2024-03-25T02:29:44;3.60;;;2.28;;
24635;SDS011;12772;49.794;10.024;2024-03-25T02:33:46;4.20;;;2.80;;
24635;SDS011;12772;49.794;10.024;2024-03-25T02:37:50;2.67;;;2.40;;
24635;SDS011;12772;49.794;10.024;2024-03-25T02:41:53;3.58;;;2.33;;
24635;SDS011;12772;49.794;10.024;2024-03-25T02:45:55;3.50;;;2.60;;
24635;SDS011;12772;49.794;10.024;2024-03-25T02:49:57;4.53;;;2.53;;
24635;SDS011;12772;49.794;10.024;2024-03-25T02:53:59;2.80;;;2.60;;
24635;SDS011;12772;49.794;10.024;2024-03-25T02:58:01;4.57;;;3.08;;
24635;SDS011;12772;49.794;10.024;2024-03-25T03:02:03;3.40;;;2.85;;
24635;SDS011;12772;49.794;10.024;2024-03-25T03:06:05;4.05;;;2.70;;
24635;SDS011;12772;49.794;10.024;2024-03-25T03:10:07;3.65;;;2.95;;
24635;SDS011;12772;49.794;10.024;2024-03-25T03:14:10;3.47;;;3.13;;
24635;SDS011;12772;49.794;10.024;2024-03-25T03:18:12;5.18;;;2.95;;
24635;SDS011;12772;49.794;10.024;2024-03-25T03:22:13;3.75;;;3.10;;
24635;SDS011;12772;49.794;10.024;2024-03-25T03:26:14;3.72;;;2.85;;
24635;SDS011;12772;49.794;10.024;2024-03-25T03:30:16;5.78;;;2.60;;
24635;SDS011;12772;49.794;10.024;2024-03-25T03:34:18;3.08;;;2.30;;
24635;SDS011;12772;49.794;10.024;2024-03-25T03:38:20;3.05;;;2.80;;
24635;SDS011;12772;49.794;10.024;2024-03-25T03:42:22;3.90;;;2.90;;
24635;SDS011;12772;49.794;10.024;2024-03-25T03:46:24;4.88;;;2.90;;
24635;SDS011;12772;49.794;10.024;2024-03-25T03:50:26;2.88;;;2.60;;
24635;SDS011;12772;49.794;10.024;2024-03-25T03:54:28;3.53;;;2.42;;
24635;SDS011;12772;49.794;10.024;2024-03-25T03:58:31;5.20;;;3.05;;
24635;SDS011;12772;49.794;10.024;2024-03-25T04:02:33;2.72;;;2.45;;
24635;SDS011;12772;49.794;10.024;2024-03-25T04:06:35;4.80;;;2.50;;
24635;SDS011;12772;49.794;10.024;2024-03-25T04:10:37;5.22;;;2.53;;
24635;SDS011;12772;49.794;10.024;2024-03-25T04:14:38;5.03;;;2.47;;
24635;SDS011;12772;49.794;10.024;2024-03-25T04:18:40;5.20;;;3.58;;
24635;SDS011;12772;49.794;10.024;2024-03-25T04:22:43;5.13;;;2.72;;
24635;SDS011;12772;49.794;10.024;2024-03-25T04:26:46;4.30;;;2.33;;
24635;SDS011;12772;49.794;10.024;2024-03-25T04:30:52;7.60;;;2.63;;
24635;SDS011;12772;49.794;10.024;2024-03-25T04:34:55;6.60;;;2.58;;
24635;SDS011;12772;49.794;10.024;2024-03-25T04:38:57;4.63;;;2.55;;
24635;SDS011;12772;49.794;10.024;2024-03-25T04:42:58;4.45;;;2.83;;
24635;SDS011;12772;49.794;10.024;2024-03-25T04:46:59;3.15;;;2.25;;
24635;SDS011;12772;49.794;10.024;2024-03-25T04:51:00;3.63;;;2.15;;
24635;SDS011;12772;49.794;10.024;2024-03-25T04:55:01;5.93;;;2.55;;
24635;SDS011;12772;49.794;10.024;2024-03-25T04:59:02;4.15;;;2.05;;
24635;SDS011;12772;49.794;10.024;2024-03-25T05:03:03;3.90;;;2.22;;
24635;SDS011;12772;49.794;10.024;2024-03-25T05:07:04;3.42;;;1.95;;
24635;SDS011;12772;49.794;10.024;2024-03-25T05:11:05;7.50;;;2.45;;
24635;SDS011;12772;49.794;10.024;2024-03-25T05:15:06;2.97;;;2.30;;
24635;SDS011;12772;49.794;10.024;2024-03-25T05:19:08;4.47;;;2.33;;
24635;SDS011;12772;49.794;10.024;2024-03-25T05:23:09;2.15;;;1.80;;
24635;SDS011;12772;49.794;10.024;2024-03-25T05:27:10;3.22;;;2.30;;
24635;SDS011;12772;49.794;10.024;2024-03-25T05:31:11;3.45;;;1.90;;
24635;SDS011;12772;49.794;10.024;2024-03-25T05:35:12;5.88;;;2.10;;
24635;SDS011;12772;49.794;10.024;2024-03-25T05:39:13;3.75;;;2.33;;
24635;SDS011;12772;49.794;10.024;2024-03-25T05:43:14;3.55;;;1.92;;
24635;SDS011;12772;49.794;10.024;2024-03-25T05:47:15;3.08;;;2.05;;
24635;SDS011;12772;49.794;10.024;2024-03-25T05:51:16;2.63;;;2.40;;
24635;SDS011;12772;49.794;10.024;2024-03-25T05:55:17;3.45;;;2.42;;
24635;SDS011;12772;49.794;10.024;2024-03-25T05:59:18;6.53;;;2.28;;
24635;SDS011;12772;49.794;10.024;2024-03-25T06:03:20;5.45;;;2.42;;
24635;SDS011;12772;49.794;10.024;2024-03-25T06:07:21;2.47;;;2.22;;
24635;SDS011;12772;49.794;10.024;2024-03-25T06:11:23;3.10;;;2.60;;
24635;SDS011;12772;49.794;10.024;2024-03-25T06:15:24;6.20;;;3.00;;
24635;SDS011;12772;49.794;10.024;2024-03-25T06:19:25;4.22;;;2.72;;
24635;SDS011;12772;49.794;10.024;2024-03-25T06:23:26;5.68;;;3.38;;
24635;SDS011;12772;49.794;10.024;2024-03-25T06:27:28;4.57;;;3.42;;
24635;SDS011;12772;49.794;10.024;2024-03-25T06:31:29;4.38;;;3.70;;
24635;SDS011;12772;49.794;10.024;2024-03-25T06:35:49;4.05;;;3.10;;
24635;SDS011;12772;49.794;10.024;2024-03-25T06:39:50;7.00;;;3.90;;
24635;SDS011;12772;49.794;10.024;2024-03-25T06:43:51;5.18;;;3.70;;
24635;SDS011;12772;49.794;10.024;2024-03-25T06:47:52;4.20;;;3.47;;
24635;SDS011;12772;49.794;10.024;2024-03-25T06:51:53;6.07;;;3.08;;
24635;SDS011;12772;49.794;10.024;2024-03-25T06:56:00;3.38;;;2.63;;
24635;SDS011;12772;49.794;10.024;2024-03-25T07:00:02;5.88;;;2.97;;
24635;SDS011;12772;49.794;10.024;2024-03-25T07:04:03;6.07;;;3.20;;
24635;SDS011;12772;49.794;10.024;2024-03-25T07:08:05;5.50;;;3.28;;
24635;SDS011;12772;49.794;10.024;2024-03-25T07:12:06;8.38;;;4.65;;
24635;SDS011;12772;49.794;10.024;2024-03-25T07:16:07;6.57;;;3.97;;
24635;SDS011;12772;49.794;10.024;2024-03-25T07:20:08;6.68;;;4.07;;
24635;SDS011;12772;49.794;10.024;2024-03-25T07:24:10;4.72;;;3.65;;
24635;SDS011;12772;49.794;10.024;2024-03-25T07:28:11;10.13;;;4.28;;
24635;SDS011;12772;49.794;10.024;2024-03-25T07:32:12;5.13;;;4.15;;
24635;SDS011;12772;49.794;10.024;2024-03-25T07:36:13;5.72;;;4.18;;
24635;SDS011;12772;49.794;10.024;2024-03-25T07:40:14;5.45;;;3.90;;
24635;SDS011;12772;49.794;10.024;2024-03-25T07:44:15;4.97;;;3.92;;
24635;SDS011;12772;49.794;10.024;2024-03-25T07:48:16;6.10;;;4.53;;
24635;SDS011;12772;49.794;10.024;2024-03-25T07:52:18;5.15;;;3.72;;
24635;SDS011;12772;49.794;10.024;2024-03-25T07:56:19;9.95;;;4.22;;
24635;SDS011;12772;49.794;10.024;2024-03-25T08:00:20;4.43;;;4.03;;
24635;SDS011;12772;49.794;10.024;2024-03-25T08:04:21;7.07;;;3.75;;
24635;SDS011;12772;49.794;10.024;2024-03-25T08:08:22;5.93;;;3.40;;
24635;SDS011;12772;49.794;10.024;2024-03-25T08:12:23;3.00;;;2.53;;
24635;SDS011;12772;49.794;10.024;2024-03-25T08:16:24;6.53;;;2.47;;
24635;SDS011;12772;49.794;10.024;2024-03-25T08:20:25;3.25;;;2.47;;
24635;SDS011;12772;49.794;10.024;2024-03-25T08:24:26;4.60;;;2.50;;
24635;SDS011;12772;49.794;10.024;2024-03-25T08:28:27;7.65;;;2.08;;
24635;SDS011;12772;49.794;10.024;2024-03-25T08:32:28;8.27;;;2.42;;
24635;SDS011;12772;49.794;10.024;2024-03-25T08:36:29;7.28;;;2.40;;
24635;SDS011;12772;49.794;10.024;2024-03-25T08:40:31;6.43;;;2.33;;
24635;SDS011;12772;49.794;10.024;2024-03-25T08:44:32;3.63;;;1.80;;
24635;SDS011;12772;49.794;10.024;2024-03-25T08:48:33;5.20;;;2.10;;
24635;SDS011;12772;49.794;10.024;2024-03-25T08:52:34;3.33;;;1.88;;
24635;SDS011;12772;49.794;10.024;2024-03-25T08:56:35;5.53;;;2.03;;
24635;SDS011;12772;49.794;10.024;2024-03-25T09:00:36;8.30;;;1.77;;
24635;SDS011;12772;49.794;10.024;2024-03-25T09:04:37;4.65;;;1.88;;
24635;SDS011;12772;49.794;10.024;2024-03-25T09:08:38;6.72;;;2.00;;
24635;SDS011;12772;49.794;10.024;2024-03-25T09:12:54;3.92;;;1.88;;
24635;SDS011;12772;49.794;10.024;2024-03-25T09:16:55;5.55;;;2.58;;
24635;SDS011;12772;49.794;10.024;2024-03-25T09:20:56;7.22;;;2.47;;
24635;SDS011;12772;49.794;10.024;2024-03-25T09:24:57;5.05;;;2.05;;
24635;SDS011;12772;49.794;10.024;2024-03-25T09:28:58;3.08;;;1.50;;
24635;SDS011;12772;49.794;10.024;2024-03-25T09:32:59;3.35;;;1.67;;
24635;SDS011;12772;49.794;10.024;2024-03-25T09:37:00;3.72;;;2.03;;
24635;SDS011;12772;49.794;10.024;2024-03-25T09:41:01;5.90;;;2.45;;
24635;SDS011;12772;49.794;10.024;2024-03-25T09:45:03;4.13;;;2.00;;
24635;SDS011;12772;49.794;10.024;2024-03-25T09:49:08;4.32;;;2.13;;
24635;SDS011;12772;49.794;10.024;2024-03-25T09:53:09;7.30;;;2.13;;
24635;SDS011;12772;49.794;10.024;2024-03-25T09:57:10;7.00;;;1.98;;
24635;SDS011;12772;49.794;10.024;2024-03-25T10:01:12;6.00;;;1.48;;
24635;SDS011;12772;49.794;10.024;2024-03-25T10:05:14;4.80;;;1.90;;
24635;SDS011;12772;49.794;10.024;2024-03-25T10:09:18;4.35;;;1.90;;
24635;SDS011;12772;49.794;10.024;2024-03-25T10:13:20;4.70;;;1.70;;
24635;SDS011;12772;49.794;10.024;2024-03-25T10:17:21;3.17;;;1.92;;
24635;SDS011;12772;49.794;10.024;2024-03-25T10:21:22;5.20;;;1.95;;
24635;SDS011;12772;49.794;10.024;2024-03-25T10:25:25;7.53;;;2.08;;
24635;SDS011;12772;49.794;10.024;2024-03-25T10:29:28;3.85;;;1.80;;
24635;SDS011;12772;49.794;10.024;2024-03-25T10:33:29;2.20;;;1.50;;
24635;SDS011;12772;49.794;10.024;2024-03-25T10:37:30;2.92;;;1.77;;
24635;SDS011;12772;49.794;10.024;2024-03-25T10:41:31;4.15;;;1.80;;
24635;SDS011;12772;49.794;10.024;2024-03-25T10:45:37;6.35;;;2.08;;
24635;SDS011;12772;49.794;10.024;2024-03-25T10:49:46;3.97;;;1.73;;
24635;SDS011;12772;49.794;10.024;2024-03-25T10:53:51;2.97;;;1.52;;
24635;SDS011;12772;49.794;10.024;2024-03-25T10:57:53;1.95;;;1.33;;
24635;SDS011;12772;49.794;10.024;2024-03-25T11:01:55;3.42;;;1.80;;
24635;SDS011;12772;49.794;10.024;2024-03-25T11:05:56;4.68;;;1.80;;
24635;SDS011;12772;49.794;10.024;2024-03-25T11:10:04;4.20;;;1.70;;
24635;SDS011;12772;49.794;10.024;2024-03-25T11:14:15;3.85;;;2.40;;
24635;SDS011;12772;49.794;10.024;2024-03-25T11:18:17;3.70;;;1.70;;
24635;SDS011;12772;49.794;10.024;2024-03-25T11:22:23;17.38;;;2.90;;
24635;SDS011;12772;49.794;10.024;2024-03-25T11:26:25;9.95;;;3.30;;
24635;SDS011;12772;49.794;10.024;2024-03-25T11:30:27;16.85;;;2.70;;
24635;SDS011;12772;49.794;10.024;2024-03-25T11:34:28;5.22;;;2.00;;
24635;SDS011;12772;49.794;10.024;2024-03-25T11:38:29;4.65;;;1.83;;
24635;SDS011;12772;49.794;10.024;2024-03-25T11:42:30;3.03;;;2.03;;
24635;SDS011;12772;49.794;10.024;2024-03-25T11:46:33;7.90;;;1.77;;
24635;SDS011;12772;49.794;10.024;2024-03-25T11:50:37;2.42;;;1.50;;
24635;SDS011;12772;49.794;10.024;2024-03-25T11:54:38;4.93;;;1.63;;
24635;SDS011;12772;49.794;10.024;2024-03-25T11:58:39;3.33;;;1.63;;
24635;SDS011;12772;49.794;10.024;2024-03-25T12:02:43;10.80;;;2.30;;
24635;SDS011;12772;49.794;10.024;2024-03-25T12:06:45;4.43;;;2.17;;
24635;SDS011;12772;49.794;10.024;2024-03-25T12:10:46;10.85;;;2.10;;
24635;SDS011;12772;49.794;10.024;2024-03-25T12:15:06;6.93;;;2.10;;
24635;SDS011;12772;49.794;10.024;2024-03-25T12:19:08;4.18;;;2.75;;
24635;SDS011;12772;49.794;10.024;2024-03-25T12:23:09;3.92;;;1.67;;
24635;SDS011;12772;49.794;10.024;2024-03-25T12:27:10;3.90;;;1.75;;
24635;SDS011;12772;49.794;10.024;2024-03-25T12:31:11;3.80;;;1.90;;
24635;SDS011;12772;49.794;10.024;2024-03-25T12:35:15;3.47;;;1.90;;
24635;SDS011;12772;49.794;10.024;2024-03-25T12:39:17;2.95;;;2.10;;
24635;SDS011;12772;49.794;10.024;2024-03-25T12:43:19;2.88;;;1.63;;
24635;SDS011;12772;49.794;10.024;2024-03-25T12:47:20;2.40;;;1.90;;
24635;SDS011;12772;49.794;10.024;2024-03-25T12:51:22;2.38;;;1.52;;
24635;SDS011;12772;49.794;10.024;2024-03-25T12:55:23;6.88;;;2.17;;
24635;SDS011;12772;49.794;10.024;2024-03-25T12:59:24;10.70;;;6.40;;
24635;SDS011;12772;49.794;10.024;2024-03-25T13:03:25;5.18;;;3.65;;
24635;SDS011;12772;49.794;10.024;2024-03-25T13:07:26;5.32;;;2.47;;
24635;SDS011;12772;49.794;10.024;2024-03-25T13:11:27;3.17;;;2.03;;
24635;SDS011;12772;49.794;10.024;2024-03-25T13:15:28;4.07;;;2.38;;
24635;SDS011;12772;49.794;10.024;2024-03-25T13:19:29;5.07;;;2.03;;
24635;SDS011;12772;49.794;10.024;2024-03-25T13:23:30;3.83;;;2.78;;
24635;SDS011;12772;49.794;10.024;2024-03-25T13:27:31;2.47;;;2.15;;
24635;SDS011;12772;49.794;10.024;2024-03-25T13:31:33;3.97;;;2.20;;
24635;SDS011;12772;49.794;10.024;2024-03-25T13:35:34;4.75;;;2.30;;
24635;SDS011;12772;49.794;10.024;2024-03-25T13:39:35;2.75;;;2.25;;
24635;SDS011;12772;49.794;10.024;2024-03-25T13:43:41;2.35;;;1.95;;
24635;SDS011;12772;49.794;10.024;2024-03-25T13:47:43;5.18;;;2.28;;
24635;SDS011;12772;49.794;10.024;2024-03-25T13:51:44;3.28;;;2.00;;
24635;SDS011;12772;49.794;10.024;2024-03-25T13:55:45;13.55;;;2.28;;
24635;SDS011;12772;49.794;10.024;2024-03-25T13:59:46;4.32;;;2.08;;
24635;SDS011;12772;49.794;10.024;2024-03-25T14:03:48;3.97;;;2.10;;
24635;SDS011;12772;49.794;10.024;2024-03-25T14:07:49;4.00;;;2.08;;
24635;SDS011;12772;49.794;10.024;2024-03-25T14:11:50;8.48;;;5.03;;
24635;SDS011;12772;49.794;10.024;2024-03-25T14:15:51;3.42;;;2.80;;
24635;SDS011;12772;49.794;10.024;2024-03-25T14:19:53;7.13;;;2.80;;
24635;SDS011;12772;49.794;10.024;2024-03-25T14:23:56;3.50;;;2.33;;
24635;SDS011;12772;49.794;10.024;2024-03-25T14:27:57;4.50;;;2.47;;
24635;SDS011;12772;49.794;10.024;2024-03-25T14:31:58;4.85;;;2.35;;
24635;SDS011;12772;49.794;10.024;2024-03-25T14:35:59;4.10;;;2.33;;
24635;SDS011;12772;49.794;10.024;2024-03-25T14:40:00;5.88;;;2.63;;
24635;SDS011;12772;49.794;10.024;2024-03-25T14:44:01;16.23;;;3.97;;
24635;SDS011;12772;49.794;10.024;2024-03-25T14:48:02;4.85;;;2.08;;
24635;SDS011;12772;49.794;10.024;2024-03-25T14:52:04;6.90;;;2.42;;
24635;SDS011;12772;49.794;10.024;2024-03-25T14:56:05;11.95;;;2.25;;
24635;SDS011;12772;49.794;10.024;2024-03-25T15:00:06;6.88;;;4.55;;
24635;SDS011;12772;49.794;10.024;2024-03-25T15:04:08;8.30;;;4.72;;
24635;SDS011;12772;49.794;10.024;2024-03-25T15:08:09;3.97;;;3.03;;
24635;SDS011;12772;49.794;10.024;2024-03-25T15:12:10;6.35;;;2.50;;
24635;SDS011;12772;49.794;10.024;2024-03-25T15:16:11;8.20;;;2.88;;
24635;SDS011;12772;49.794;10.024;2024-03-25T15:20:12;3.30;;;2.15;;
24635;SDS011;12772;49.794;10.024;2024-03-25T15:24:13;3.90;;;2.05;;
24635;SDS011;12772;49.794;10.024;2024-03-25T15:28:14;2.35;;;1.70;;
24635;SDS011;12772;49.794;10.024;2024-03-25T15:32:15;3.40;;;1.98;;
24635;SDS011;12772;49.794;10.024;2024-03-25T15:36:16;4.70;;;2.17;;
24635;SDS011;12772;49.794;10.024;2024-03-25T15:40:17;6.65;;;2.10;;
24635;SDS011;12772;49.794;10.024;2024-03-25T15:44:18;1.77;;;1.55;;
24635;SDS011;12772;49.794;10.024;2024-03-25T15:48:20;3.30;;;1.77;;
24635;SDS011;12772;49.794;10.024;2024-03-25T15:52:21;3.60;;;1.83;;
24635;SDS011;12772;49.794;10.024;2024-03-25T15:56:22;1.58;;;1.48;;
24635;SDS011;12772;49.794;10.024;2024-03-25T16:00:23;1.52;;;1.38;;
24635;SDS011;12772;49.794;10.024;2024-03-25T16:04:24;2.15;;;1.95;;
24635;SDS011;12772;49.794;10.024;2024-03-25T16:08:25;4.75;;;2.38;;
24635;SDS011;12772;49.794;10.024;2024-03-25T16:12:26;3.15;;;2.22;;
24635;SDS011;12772;49.794;10.024;2024-03-25T16:16:27;11.82;;;3.13;;
24635;SDS011;12772;49.794;10.024;2024-03-25T16:20:32;2.95;;;2.10;;
24635;SDS011;12772;49.794;10.024;2024-03-25T16:24:33;3.75;;;2.17;;
24635;SDS011;12772;49.794;10.024;2024-03-25T16:28:35;2.45;;;1.73;;
24635;SDS011;12772;49.794;10.024;2024-03-25T16:32:36;6.82;;;3.85;;
24635;SDS011;12772;49.794;10.024;2024-03-25T16:36:37;6.28;;;2.60;;
24635;SDS011;12772;49.794;10.024;2024-03-25T16:40:39;3.00;;;1.95;;
24635;SDS011;12772;49.794;10.024;2024-03-25T16:44:40;2.30;;;2.00;;
24635;SDS011;12772;49.794;10.024;2024-03-25T16:48:41;3.25;;;1.98;;
24635;SDS011;12772;49.794;10.024;2024-03-25T16:52:42;2.38;;;2.25;;
24635;SDS011;12772;49.794;10.024;2024-03-25T16:56:43;2.28;;;1.95;;
24635;SDS011;12772;49.794;10.024;2024-03-25T17:00:44;2.80;;;2.25;;
24635;SDS011;12772;49.794;10.024;2024-03-25T17:04:45;5.22;;;2.50;;
24635;SDS011;12772;49.794;10.024;2024-03-25T17:08:46;4.70;;;2.83;;
24635;SDS011;12772;49.794;10.024;2024-03-25T17:12:48;3.05;;;2.38;;
24635;SDS011;12772;49.794;10.024;2024-03-25T17:16:49;4.18;;;2.72;;
24635;SDS011;12772;49.794;10.024;2024-03-25T17:20:50;4.65;;;2.40;;
24635;SDS011;12772;49.794;10.024;2024-03-25T17:24:59;2.97;;;2.67;;
24635;SDS011;12772;49.794;10.024;2024-03-25T17:29:00;3.80;;;3.40;;
24635;SDS011;12772;49.794;10.024;2024-03-25T17:33:01;3.65;;;3.20;;
24635;SDS011;12772;49.794;10.024;2024-03-25T17:37:02;4.68;;;2.70;;
24635;SDS011;12772;49.794;10.024;2024-03-25T17:41:04;2.40;;;2.25;;
24635;SDS011;12772;49.794;10.024;2024-03-25T17:45:05;3.70;;;2.70;;
24635;SDS011;12772;49.794;10.024;2024-03-25T17:49:06;3.47;;;2.63;;
24635;SDS011;12772;49.794;10.024;2024-03-25T17:53:07;8.10;;;2.80;;
24635;SDS011;12772;49.794;10.024;2024-03-25T17:57:08;8.35;;;3.15;;
24635;SDS011;12772;49.794;10.024;2024-03-25T18:01:09;4.15;;;3.10;;
24635;SDS011;12772;49.794;10.024;2024-03-25T18:05:10;3.28;;;2.80;;
24635;SDS011;12772;49.794;10.024;2024-03-25T18:09:12;3.80;;;2.97;;
24635;SDS011;12772;49.794;10.024;2024-03-25T18:13:13;4.63;;;3.30;;
24635;SDS011;12772;49.794;10.024;2024-03-25T18:17:14;2.85;;;2.60;;
24635;SDS011;12772;49.794;10.024;2024-03-25T18:21:15;5.15;;;3.65;;
24635;SDS011;12772;49.794;10.024;2024-03-25T18:25:16;4.00;;;3.47;;
24635;SDS011;12772;49.794;10.024;2024-03-25T18:29:17;5.25;;;3.15;;
24635;SDS011;12772;49.794;10.024;2024-03-25T18:33:18;5.05;;;2.80;;
24635;SDS011;12772;49.794;10.024;2024-03-25T18:37:19;5.80;;;4.10;;
24635;SDS011;12772;49.794;10.024;2024-03-25T18:41:20;10.95;;;6.50;;
24635;SDS011;12772;49.794;10.024;2024-03-25T18:45:21;6.75;;;4.68;;
24635;SDS011;12772;49.794;10.024;2024-03-25T18:49:22;7.07;;;3.20;;
24635;SDS011;12772;49.794;10.024;2024-03-25T18:53:23;3.47;;;2.83;;
24635;SDS011;12772;49.794;10.024;2024-03-25T18:57:25;3.95;;;2.80;;
24635;SDS011;12772;49.794;10.024;2024-03-25T19:01:26;3.15;;;2.65;;
24635;SDS011;12772;49.794;10.024;2024-03-25T19:05:27;2.50;;;2.30;;
24635;SDS011;12772;49.794;10.024;2024-03-25T19:09:28;4.60;;;2.40;;
24635;SDS011;12772;49.794;10.024;2024-03-25T19:13:29;3.75;;;2.80;;
24635;SDS011;12772;49.794;10.024;2024-03-25T19:17:30;4.03;;;2.30;;
24635;SDS011;12772;49.794;10.024;2024-03-25T19:21:31;2.90;;;2.60;;
24635;SDS011;12772;49.794;10.024;2024-03-25T19:25:32;3.35;;;2.58;;
24635;SDS011;12772;49.794;10.024;2024-03-25T19:29:33;4.35;;;2.97;;
24635;SDS011;12772;49.794;10.024;2024-03-25T19:33:34;7.38;;;2.55;;
24635;SDS011;12772;49.794;10.024;2024-03-25T19:37:35;2.85;;;2.40;;
24635;SDS011;12772;49.794;10.024;2024-03-25T19:41:36;4.15;;;2.88;;
24635;SDS011;12772;49.794;10.024;2024-03-25T19:45:37;4.70;;;3.00;;
24635;SDS011;12772;49.794;10.024;2024-03-25T19:49:38;3.22;;;2.40;;
24635;SDS011;12772;49.794;10.024;2024-03-25T19:53:39;4.07;;;3.10;;
24635;SDS011;12772;49.794;10.024;2024-03-25T19:57:40;4.90;;;2.92;;
24635;SDS011;12772;49.794;10.024;2024-03-25T20:01:41;3.30;;;2.97;;
24635;SDS011;12772;49.794;10.024;2024-03-25T20:05:43;3.85;;;2.90;;
24635;SDS011;12772;49.794;10.024;2024-03-25T20:09:44;3.08;;;2.75;;
24635;SDS011;12772;49.794;10.024;2024-03-25T20:13:45;4.47;;;3.00;;
24635;SDS011;12772;49.794;10.024;2024-03-25T20:17:46;3.20;;;2.80;;
24635;SDS011;12772;49.794;10.024;2024-03-25T20:21:47;3.15;;;2.65;;
24635;SDS011;12772;49.794;10.024;2024-03-25T20:25:48;4.13;;;2.85;;
24635;SDS011;12772;49.794;10.024;2024-03-25T20:29:50;6.45;;;3.08;;
24635;SDS011;12772;49.794;10.024;2024-03-25T20:33:51;4.47;;;2.97;;
24635;SDS011;12772;49.794;10.024;2024-03-25T20:37:52;4.30;;;3.25;;
24635;SDS011;12772;49.794;10.024;2024-03-25T20:41:53;4.97;;;3.42;;
24635;SDS011;12772;49.794;10.024;2024-03-25T20:45:54;2.70;;;2.38;;
24635;SDS011;12772;49.794;10.024;2024-03-25T20:49:55;2.60;;;2.40;;
24635;SDS011;12772;49.794;10.024;2024-03-25T20:53:56;4.95;;;2.40;;
24635;SDS011;12772;49.794;10.024;2024-03-25T20:57:57;3.80;;;2.10;;
24635;SDS011;12772;49.794;10.024;2024-03-25T21:01:58;2.50;;;2.20;;
24635;SDS011;12772;49.794;10.024;2024-03-25T21:06:00;2.80;;;2.30;;
24635;SDS011;12772;49.794;10.024;2024-03-25T21:10:01;3.00;;;2.17;;
24635;SDS011;12772;49.794;10.024;2024-03-25T21:14:03;5.72;;;2.33;;
24635;SDS011;12772;49.794;10.024;2024-03-25T21:18:04;2.45;;;2.25;;
24635;SDS011;12772;49.794;10.024;2024-03-25T21:22:05;3.95;;;2.42;;
24635;SDS011;12772;49.794;10.024;2024-03-25T21:26:06;2.42;;;2.13;;
24635;SDS011;12772;49.794;10.024;2024-03-25T21:30:07;4.75;;;2.20;;
24635;SDS011;12772;49.794;10.024;2024-03-25T21:34:09;2.33;;;1.80;;
24635;SDS011;12772;49.794;10.024;2024-03-25T21:38:10;4.25;;;2.30;;
24635;SDS011;12772;49.794;10.024;2024-03-25T21:42:11;3.08;;;1.90;;
24635;SDS011;12772;49.794;10.024;2024-03-25T21:46:12;4.03;;;2.75;;
24635;SDS011;12772;49.794;10.024;2024-03-25T21:50:13;2.40;;;2.20;;
24635;SDS011;12772;49.794;10.024;2024-03-25T21:54:14;3.78;;;2.30;;
24635;SDS011;12772;49.794;10.024;2024-03-25T21:58:16;2.60;;;2.30;;
24635;SDS011;12772;49.794;10.024;2024-03-25T22:02:17;6.63;;;2.95;;
24635;SDS011;12772;49.794;10.024;2024-03-25T22:06:18;4.85;;;2.97;;
24635;SDS011;12772;49.794;10.024;2024-03-25T22:10:19;4.20;;;3.05;;
24635;SDS011;12772;49.794;10.024;2024-03-25T22:14:20;3.80;;;2.47;;
24635;SDS011;12772;49.794;10.024;2024-03-25T22:18:21;4.25;;;3.03;;
24635;SDS011;12772;49.794;10.024;2024-03-25T22:22:22;2.70;;;2.50;;
24635;SDS011;12772;49.794;10.024;2024-03-25T22:26:24;3.33;;;2.72;;
24635;SDS011;12772;49.794;10.024;2024-03-25T22:30:25;3.33;;;2.10;;
24635;SDS011;12772;49.794;10.024;2024-03-25T22:34:26;3.47;;;2.63;;
24635;SDS011;12772;49.794;10.024;2024-03-25T22:38:27;2.40;;;2.20;;
24635;SDS011;12772;49.794;10.024;2024-03-25T22:42:28;5.88;;;2.65;;
24635;SDS011;12772;49.794;10.024;2024-03-25T22:46:29;5.18;;;2.80;;
24635;SDS011;12772;49.794;10.024;2024-03-25T22:50:30;5.03;;;2.75;;
24635;SDS011;12772;49.794;10.024;2024-03-25T22:54:31;3.67;;;2.80;;
24635;SDS011;12772;49.794;10.024;2024-03-25T22:58:35;3.08;;;2.60;;
24635;SDS011;12772;49.794;10.024;2024-03-25T23:02:37;3.05;;;2.70;;
24635;SDS011;12772;49.794;10.024;2024-03-25T23:06:38;2.55;;;2.35;;
24635;SDS011;12772;49.794;10.024;2024-03-25T23:10:39;6.70;;;2.80;;
24635;SDS011;12772;49.794;10.024;2024-03-25T23:14:40;3.45;;;3.03;;
24635;SDS011;12772;49.794;10.024;2024-03-25T23:18:41;5.93;;;3.03;;
24635;SDS011;12772;49.794;10.024;2024-03-25T23:22:42;2.80;;;2.60;;
24635;SDS011;12772;49.794;10.024;2024-03-25T23:26:44;3.58;;;2.55;;
24635;SDS011;12772;49.794;10.024;2024-03-25T23:30:45;2.63;;;2.38;;
24635;SDS011;12772;49.794;10.024;2024-03-25T23:34:46;2.58;;;2.20;;
24635;SDS011;12772;49.794;10.024;2024-03-25T23:38:49;3.95;;;2.67;;
24635;SDS011;12772;49.794;10.024;2024-03-25T23:42:50;3.55;;;2.70;;
24635;SDS011;12772;49.794;10.024;2024-03-25T23:46:51;4.38;;;3.22;;
24635;SDS011;12772;49.794;10.024;2024-03-25T23:50:52;4.03;;;2.90;;